Last 7 Days

Upper Lake

Hourly Data | America/Los_Angeles
as of 5/8/26 3:41 AM PDT
Date & Time Temp (°F) RH (%) Dew Pt (°F) Wet Bulb (°F) Wind Dir (°) Wind Spd (mph) Wind Gust (mph) Leaf Wet (mins) BatVolt (V) Latest Rain (In) Max Rain Intensity (In/Hr) Precip 24Hr (In) Daily Rain (In) Daily Min Temp (°F) Daily Max Temp (°F) Daily Max Wind (mph) Daily Leaf Wet (Hrs)
5/8/26 - 0300 45.8 96 44.8 45.8 SW | 216 0.2 2.3 25.3 12.6 0.00 - - 0.00 45.0 48.0 2.3 0.4
5/8/26 - 0200 46.9 94 45.4 46.7 NW | 315 0.3 2.2 0.0 12.7 0.00 - - 0.00 46.0 48.0 2.2 0.0
5/8/26 - 0100 48.7 92 46.3 48.1 NW | 320 0.7 3.0 0.0 12.7 0.00 - - 0.00 44.6 83.5 14.0 6.8
5/8/26 - 0000 50.2 90 47.5 49.4 NNW | 336 1.0 3.3 0.0 12.7 0.00 - - 0.00 44.6 83.5 14.0 6.8
5/7/26 - 2300 53.2 86 49.2 51.8 NW | 326 0.8 2.4 0.0 12.8 0.00 - - 0.00 44.6 83.5 14.0 6.8
5/7/26 - 2200 60.6 71 51.0 55.8 NNW | 338 1.0 4.9 0.0 12.9 0.00 - - 0.00 44.6 83.5 14.0 6.8
5/7/26 - 2100 67.3 49 47.5 56.0 NW | 307 2.7 9.6 0.0 13.0 0.00 - - 0.00 44.6 83.5 14.0 6.8
5/7/26 - 2000 71.4 45 48.8 57.9 WNW | 297 3.1 10.4 0.0 13.2 0.00 - - 0.00 44.6 83.5 14.0 6.8
5/7/26 - 1900 76.2 44 53.0 61.5 WNW | 301 4.2 14.0 0.0 13.4 0.00 - - 0.00 44.6 83.5 14.0 6.8
5/7/26 - 1800 79.7 44 56.0 64.0 WNW | 302 4.8 12.9 0.0 13.3 0.00 - - 0.00 44.6 83.5 12.9 6.8
5/7/26 - 1700 82.5 40 56.0 64.5 WNW | 282 3.7 12.2 0.0 13.2 0.00 - - 0.00 44.6 83.5 12.2 6.8
5/7/26 - 1600 81.7 43 56.8 64.8 SSE | 151 4.7 11.7 0.0 13.3 0.00 - - 0.00 44.6 82.5 11.7 6.8
5/7/26 - 1500 81.1 44 57.3 65.1 S | 174 3.5 9.3 0.0 13.3 0.00 - - 0.00 44.6 82.5 9.6 6.8
5/7/26 - 1400 78.2 51 58.5 65.4 ESE | 122 2.8 6.9 0.0 13.4 0.00 - - 0.00 44.6 80.3 9.6 6.8
5/7/26 - 1300 74.9 60 60.2 65.9 SE | 144 3.5 9.6 0.0 13.4 0.00 - - 0.00 44.6 77.0 9.6 6.8
5/7/26 - 1200 72.4 65 60.1 65.3 SSE | 158 3.6 9.2 0.0 13.5 0.00 - - 0.00 44.6 74.2 9.2 6.8
5/7/26 - 1100 68.6 71 58.7 63.4 SSE | 167 3.1 9.1 0.0 13.5 0.00 - - 0.00 44.6 70.8 9.1 6.8
5/7/26 - 1000 64.8 78 57.8 61.7 ESE | 122 1.8 7.7 0.0 12.8 0.00 - - 0.00 44.6 67.2 7.7 6.8
5/7/26 - 0900 59.0 92 56.7 59.0 ESE | 110 1.3 4.1 0.0 12.7 0.00 - - 0.00 44.6 62.5 4.1 6.8
5/7/26 - 0800 50.9 100 50.9 51.8 NE | 36 0.6 2.6 53.1 12.7 0.00 - - 0.00 44.6 55.1 2.6 6.8
5/7/26 - 0700 45.4 99 45.2 45.8 NW | 324 0.1 1.1 60.0 12.6 0.00 - - 0.00 44.6 51.2 1.8 5.9
5/7/26 - 0600 45.4 99 45.0 45.7 NW | 323 0.1 1.8 60.0 12.6 0.00 - - 0.00 45.0 51.2 1.8 4.9
5/7/26 - 0500 46.2 99 45.8 46.6 NW | 308 0.1 1.2 60.0 12.6 0.00 - - 0.00 45.8 51.2 1.5 3.9
5/7/26 - 0400 47.3 98 46.9 47.7 WSW | 248 0.0 0.7 60.0 12.6 0.00 - - 0.00 46.3 51.2 1.5 2.9
5/7/26 - 0300 49.5 98 49.0 50.0 NW | 307 0.2 1.5 60.0 12.6 0.00 - - 0.00 48.4 51.2 1.5 1.9
5/7/26 - 0200 49.6 97 48.9 50.0 NW | 322 0.2 1.5 53.8 12.7 0.00 - - 0.00 48.7 51.2 1.5 0.9
5/7/26 - 0100 52.0 96 51.0 52.4 NNW | 328 0.3 2.5 0.0 12.7 0.00 - - 0.00 50.9 78.9 14.0 0.7
5/7/26 - 0000 55.5 92 53.1 55.2 SSE | 157 0.5 3.3 25.9 12.8 0.00 - - 0.00 53.4 78.9 14.0 0.7
5/6/26 - 2300 60.8 79 54.2 57.9 NNW | 327 2.1 11.4 10.7 12.8 0.00 - - 0.00 53.4 78.9 14.0 0.3
5/6/26 - 2200 63.0 73 54.4 58.8 WNW | 296 2.8 10.2 0.0 12.9 0.00 - - 0.00 53.4 78.9 14.0 0.1
5/6/26 - 2100 65.3 70 55.3 60.1 WNW | 296 4.0 13.3 0.0 13.0 0.00 - - 0.00 53.4 78.9 14.0 0.1
5/6/26 - 2000 68.9 64 56.5 61.9 WNW | 289 5.0 14.0 0.0 13.2 0.00 - - 0.00 53.4 78.9 14.0 0.1
5/6/26 - 1900 73.4 58 58.0 64.0 WNW | 293 5.1 13.9 5.1 13.5 0.00 - - 0.00 53.4 78.9 13.9 0.1
5/6/26 - 1800 77.1 54 59.3 65.7 NW | 311 4.8 12.5 0.0 13.4 0.00 - - 0.00 53.4 78.9 12.5 0.0
5/6/26 - 1700 78.1 51 58.8 65.5 WNW | 298 3.8 12.3 0.0 13.3 0.00 - - 0.00 53.4 78.9 12.3 0.0
5/6/26 - 1600 77.0 51 57.3 64.3 NW | 305 4.4 12.0 0.0 13.4 0.00 - - 0.00 53.4 78.2 12.0 0.0
5/6/26 - 1500 74.8 55 57.6 64.1 WSW | 242 3.5 11.1 0.0 13.4 0.00 - - 0.00 53.4 76.5 11.3 0.0
5/6/26 - 1400 71.2 60 56.6 62.6 SE | 144 3.6 9.5 0.0 13.5 0.00 - - 0.00 53.4 73.2 11.3 0.0
5/6/26 - 1300 68.5 62 55.0 60.8 SSE | 158 3.9 11.3 0.0 13.5 0.00 - - 0.00 53.4 70.0 11.3 0.0
5/6/26 - 1200 66.0 65 54.0 59.4 SSE | 148 3.0 9.1 0.0 13.6 0.00 - - 0.00 53.4 67.8 9.1 0.0
5/6/26 - 1100 62.6 72 53.4 58.0 SW | 223 2.0 6.6 0.0 13.6 0.00 - - 0.00 53.4 64.5 7.2 0.0
5/6/26 - 1000 59.0 83 53.9 57.1 SSE | 147 1.1 4.5 0.0 13.3 0.00 - - 0.00 53.4 60.8 7.2 0.0
5/6/26 - 0900 56.5 89 53.2 55.7 WNW | 282 0.4 2.1 0.0 12.8 0.00 - - 0.00 53.4 57.7 7.2 0.0
5/6/26 - 0800 55.1 91 52.6 54.7 SW | 232 0.8 3.6 0.0 12.7 0.00 - - 0.00 53.4 55.9 7.2 0.0
5/6/26 - 0700 54.0 94 52.3 54.1 WNW | 282 1.1 3.8 0.0 12.6 0.00 - - 0.00 53.4 54.8 7.2 0.0
5/6/26 - 0600 53.5 96 52.3 53.8 W | 271 1.2 3.5 0.0 12.6 0.00 - - 0.00 53.4 54.8 7.2 0.0
5/6/26 - 0500 53.9 93 52.0 53.8 WSW | 256 0.4 2.4 0.0 12.6 0.00 - - 0.00 53.5 54.8 7.2 0.0
5/6/26 - 0400 54.5 89 51.4 53.7 W | 266 0.6 2.8 0.0 12.6 0.00 - - 0.00 54.2 54.8 7.2 0.0
5/6/26 - 0300 54.7 88 51.2 53.6 WNW | 296 0.4 3.3 0.0 12.7 0.00 - - 0.00 54.6 54.8 7.2 0.0
5/6/26 - 0200 54.6 87 51.0 53.5 W | 281 1.9 7.2 0.0 12.7 0.00 - - 0.00 54.6 54.8 7.2 0.0
5/6/26 - 0100 54.7 87 51.0 53.5 W | 278 2.2 6.8 0.0 12.7 0.00 - - 0.00 48.9 72.9 14.9 0.0
5/6/26 - 0000 54.9 87 51.0 53.6 WNW | 285 2.6 9.0 0.0 12.8 0.00 - - 0.00 48.9 72.9 14.9 0.0
5/5/26 - 2300 55.1 86 51.0 53.7 W | 280 2.6 9.1 0.0 12.9 0.00 - - 0.00 48.9 72.9 14.9 0.0
5/5/26 - 2200 55.5 85 51.2 53.9 WNW | 293 3.1 10.6 0.0 13.0 0.00 - - 0.00 48.9 72.9 14.9 0.0
5/5/26 - 2100 57.6 81 51.7 55.1 WNW | 293 4.4 12.4 0.0 13.1 0.00 - 0.01 0.00 48.9 72.9 14.9 0.0
5/5/26 - 2000 61.6 72 52.7 57.2 WNW | 287 5.8 14.9 0.0 13.3 0.00 - 0.02 0.00 48.9 72.9 14.9 0.0
5/5/26 - 1900 66.2 65 54.0 59.5 WNW | 294 4.9 12.8 0.0 13.6 0.00 - 0.02 0.00 48.9 72.9 13.6 0.0
5/5/26 - 1800 69.0 60 54.4 60.6 WNW | 291 4.9 13.6 0.0 13.5 0.00 - 0.02 0.00 48.9 72.9 13.6 0.0
5/5/26 - 1700 71.5 55 54.5 61.3 WNW | 295 4.2 12.4 0.0 13.4 0.00 - 0.02 0.00 48.9 72.9 12.4 0.0
5/5/26 - 1600 71.4 55 54.5 61.3 W | 268 3.6 9.9 0.0 13.4 0.00 - 0.02 0.00 48.9 72.9 10.6 0.0
5/5/26 - 1500 69.3 59 54.4 60.7 SW | 228 3.8 10.2 0.0 13.5 0.00 - 0.02 0.00 48.9 71.2 10.6 0.0
5/5/26 - 1400 67.4 61 53.7 59.7 S | 183 3.3 9.1 0.0 13.5 0.00 - 0.02 0.00 48.9 68.8 10.6 0.0
5/5/26 - 1300 64.7 67 53.5 58.7 SE | 128 4.2 9.6 0.0 13.6 0.00 - 0.03 0.00 48.9 67.0 10.6 0.0
5/5/26 - 1200 61.9 69 51.5 56.6 SSE | 163 3.3 9.2 0.0 13.6 0.00 - 0.06 0.00 48.9 63.6 10.6 0.0
5/5/26 - 1100 59.1 74 50.8 55.1 WSW | 258 2.5 8.0 0.0 13.7 0.00 - 0.08 0.00 48.9 61.9 10.6 0.0
5/5/26 - 1000 55.8 79 49.6 53.1 W | 261 3.3 9.8 0.0 13.4 0.00 - 0.08 0.00 48.9 58.5 10.6 0.0
5/5/26 - 0900 53.6 83 48.6 51.6 WNW | 282 3.7 9.6 0.0 13.0 0.00 - 0.08 0.00 48.9 55.0 10.6 0.0
5/5/26 - 0800 51.4 88 48.1 50.3 NW | 318 2.2 6.9 0.0 12.7 0.00 - 0.08 0.00 48.9 52.4 10.6 0.0
5/5/26 - 0700 50.1 91 47.7 49.5 WNW | 297 1.9 5.4 0.0 12.6 0.00 - 0.08 0.00 48.9 50.9 10.6 0.0
5/5/26 - 0600 49.6 91 47.2 49.0 NW | 314 2.2 8.4 0.0 12.6 0.00 - 0.08 0.00 48.9 50.9 10.6 0.0
5/5/26 - 0500 50.4 90 47.4 49.5 WNW | 287 2.8 9.9 0.0 12.6 0.00 - 0.08 0.00 50.0 50.9 10.6 0.0
5/5/26 - 0400 50.3 89 47.3 49.4 WNW | 299 1.9 7.2 0.0 12.6 0.00 - 0.08 0.00 50.0 50.9 10.6 0.0
5/5/26 - 0300 50.3 89 47.1 49.2 WNW | 297 2.7 7.3 0.0 12.7 0.00 - 0.08 0.00 50.0 50.9 10.6 0.0
5/5/26 - 0200 50.7 88 47.2 49.5 NW | 312 3.6 10.6 0.0 12.7 0.00 - 0.08 0.00 50.5 50.9 10.6 0.0
5/5/26 - 0100 51.0 86 47.0 49.6 NW | 317 3.6 14.6 0.0 12.7 0.00 - 0.08 0.08 47.3 59.1 16.4 2.9
5/5/26 - 0000 50.9 88 47.6 49.8 NW | 309 3.3 13.9 0.0 12.8 0.00 - 0.08 0.08 47.3 59.1 16.4 2.9
5/4/26 - 2300 51.3 89 48.1 50.3 NW | 316 3.9 14.5 0.0 12.9 0.00 - 0.08 0.08 47.3 59.1 16.4 2.9
5/4/26 - 2200 51.7 89 48.6 50.8 NNW | 329 3.0 12.0 25.4 13.0 0.01 0.01 0.08 0.08 47.3 59.1 16.4 2.9
5/4/26 - 2100 52.6 88 49.3 51.6 NW | 315 3.7 14.1 13.9 13.1 0.01 0.01 0.07 0.07 47.3 59.1 16.4 2.4
5/4/26 - 2000 53.6 87 49.7 52.3 NW | 306 3.9 13.6 0.0 13.2 0.00 - 0.06 0.06 47.3 59.1 16.4 2.2
5/4/26 - 1900 56.2 82 50.6 53.9 WNW | 291 3.8 16.4 0.0 13.4 0.00 - 0.06 0.06 47.3 59.1 16.4 2.2
5/4/26 - 1800 57.3 80 51.3 54.8 WNW | 290 3.8 10.4 0.0 13.5 0.00 - 0.06 0.06 47.3 59.1 12.1 2.2
5/4/26 - 1700 58.2 79 51.8 55.4 W | 259 1.4 4.6 0.0 13.6 0.00 - 0.06 0.06 47.3 59.1 12.1 2.2
5/4/26 - 1600 57.7 81 51.9 55.3 S | 187 2.0 5.6 0.0 13.6 0.00 - 0.06 0.06 47.3 58.1 12.1 2.2
5/4/26 - 1500 56.9 82 51.5 54.7 SE | 124 1.2 4.2 0.0 13.6 0.00 - 0.06 0.06 47.3 57.6 12.1 2.2
5/4/26 - 1400 53.8 90 51.1 53.2 W | 259 2.1 6.6 21.2 13.9 0.01 0.01 0.06 0.06 47.3 56.1 12.1 2.2
5/4/26 - 1300 52.5 91 50.1 52.0 W | 280 2.6 11.2 48.2 13.3 0.03 0.20 0.05 0.05 47.3 54.5 12.1 1.9
5/4/26 - 1200 51.7 90 48.8 50.9 WNW | 289 3.5 9.3 56.4 13.1 0.02 0.02 0.02 0.02 47.3 54.5 12.1 1.1
5/4/26 - 1100 52.1 86 48.0 50.6 WNW | 293 3.6 11.4 7.3 13.0 0.00 - - 0.00 47.3 54.5 12.1 0.1
5/4/26 - 1000 53.4 82 48.3 51.4 WNW | 303 3.6 10.0 0.0 13.0 0.00 - - 0.00 47.3 54.5 12.1 0.0
5/4/26 - 0900 52.5 85 48.0 50.8 WNW | 288 2.8 8.8 0.0 12.8 0.00 - - 0.00 47.3 53.4 12.1 0.0
5/4/26 - 0800 52.1 86 48.0 50.6 WNW | 282 1.8 5.5 0.0 12.6 0.00 - - 0.00 47.3 52.5 12.1 0.0
5/4/26 - 0700 51.1 88 47.8 50.0 WNW | 296 1.8 5.9 0.0 12.6 0.00 - - 0.00 47.3 51.6 12.1 0.0
5/4/26 - 0600 50.5 89 47.6 49.6 W | 281 2.4 7.8 0.0 12.6 0.00 - - 0.00 47.3 51.3 12.1 0.0
5/4/26 - 0500 50.0 90 47.3 49.2 WNW | 292 3.1 12.1 0.0 12.6 0.00 - - 0.00 47.3 51.3 12.1 0.0
5/4/26 - 0400 48.0 96 47.0 48.1 NNW | 327 0.3 2.5 0.0 12.6 0.00 - - 0.00 47.3 51.3 6.0 0.0
5/4/26 - 0300 49.5 91 47.1 48.9 W | 278 0.2 1.9 0.0 12.6 0.00 - - 0.00 48.0 51.3 6.0 0.0
5/4/26 - 0200 51.0 89 47.9 50.0 WNW | 300 1.8 6.0 0.0 12.6 0.00 - - 0.00 50.9 51.3 6.0 0.0
5/4/26 - 0100 51.2 88 47.7 50.0 WNW | 293 2.8 8.1 0.0 12.7 0.00 - - 0.00 47.2 66.4 17.9 3.4
5/4/26 - 0000 51.5 87 47.8 50.2 WNW | 297 4.0 11.5 0.0 12.7 0.00 - - 0.00 47.2 66.4 17.9 3.4
5/3/26 - 2300 52.2 87 48.4 50.9 WNW | 292 5.9 16.0 0.0 12.7 0.00 - - 0.00 47.2 66.4 17.9 3.4
5/3/26 - 2200 53.7 84 49.1 51.9 WNW | 290 5.3 17.9 0.0 12.8 0.00 - - 0.00 47.2 66.4 17.9 3.4
5/3/26 - 2100 55.8 81 50.1 53.4 WNW | 287 4.1 13.6 0.0 12.9 0.00 - - 0.00 47.2 66.4 13.6 3.4
5/3/26 - 2000 57.5 79 51.0 54.6 WNW | 284 2.8 9.8 0.0 13.0 0.00 - - 0.00 47.2 66.4 12.1 3.4
5/3/26 - 1900 59.4 76 51.9 55.9 WNW | 288 3.3 10.0 0.0 13.1 0.00 - - 0.00 47.2 66.4 12.1 3.4
5/3/26 - 1800 62.0 71 52.3 57.1 W | 280 3.0 12.1 0.0 13.3 0.00 - - 0.00 47.2 66.4 12.1 3.4
5/3/26 - 1700 64.4 66 52.8 58.2 SSE | 150 4.7 10.2 0.0 13.6 0.00 - - 0.00 47.2 66.4 11.8 3.4
5/3/26 - 1600 65.3 66 53.5 58.9 SE | 144 5.2 10.2 0.0 13.6 0.00 - - 0.00 47.2 66.4 11.8 3.4
5/3/26 - 1500 65.4 65 53.5 59.0 SE | 136 4.6 9.5 0.0 13.6 0.00 - - 0.00 47.2 66.4 11.8 3.4
5/3/26 - 1400 64.1 68 53.4 58.5 SSE | 148 5.3 11.8 0.0 13.6 0.00 - - 0.00 47.2 65.4 11.8 3.4
5/3/26 - 1300 62.2 72 53.2 57.7 S | 187 2.8 11.0 0.0 13.6 0.00 - - 0.00 47.2 63.8 11.0 3.4
5/3/26 - 1200 59.7 76 52.1 56.1 W | 259 2.0 8.1 0.0 13.7 0.00 - - 0.00 47.2 62.3 9.0 3.4
5/3/26 - 1100 56.4 83 51.2 54.3 SSW | 208 1.8 5.6 0.0 13.6 0.00 - - 0.00 47.2 57.4 9.0 3.4
5/3/26 - 1000 54.7 87 50.9 53.5 W | 276 1.8 6.1 0.0 13.2 0.00 - - 0.00 47.2 55.8 9.0 3.4
5/3/26 - 0900 53.4 89 50.2 52.5 WNW | 294 2.2 9.0 0.0 12.8 0.00 - - 0.00 47.2 54.0 9.0 3.4
5/3/26 - 0800 51.7 92 49.5 51.3 NW | 313 1.6 5.5 0.0 12.7 0.00 - - 0.00 47.2 52.8 8.9 3.4
5/3/26 - 0700 50.6 94 49.1 50.6 NW | 308 2.2 8.9 10.2 12.6 0.00 - - 0.00 47.2 51.3 8.9 3.4
5/3/26 - 0600 49.4 99 49.0 49.9 WNW | 297 1.6 8.4 60.0 12.6 0.00 - - 0.00 47.2 50.8 8.4 3.3
5/3/26 - 0500 48.0 99 47.7 48.6 SE | 134 0.6 2.5 60.0 12.6 0.00 - - 0.00 47.2 50.5 2.5 2.3
5/3/26 - 0400 47.9 98 47.4 48.2 NW | 325 0.2 2.3 60.0 12.6 0.00 - - 0.00 47.2 50.5 2.3 1.3
5/3/26 - 0300 48.9 97 48.2 49.3 WNW | 283 0.3 2.3 15.0 12.7 0.00 - - 0.00 48.4 50.5 2.3 0.3
5/3/26 - 0200 49.8 96 48.7 50.0 N | 350 0.2 2.2 0.0 12.7 0.00 - - 0.00 49.1 50.5 2.2 0.0
5/3/26 - 0100 50.8 96 49.7 51.0 WNW | 290 0.4 2.2 0.0 12.7 0.00 - - 0.00 47.0 76.6 14.8 3.7
5/3/26 - 0000 51.3 94 49.7 51.2 NW | 310 0.2 1.5 0.0 12.8 0.00 - - 0.00 47.0 76.6 14.8 3.7
5/2/26 - 2300 54.0 89 50.8 53.1 SSE | 154 0.4 2.4 0.0 12.8 0.00 - - 0.00 47.0 76.6 14.8 3.7
5/2/26 - 2200 56.1 84 51.4 54.4 NNW | 332 0.8 2.4 0.0 12.9 0.00 - - 0.00 47.0 76.6 14.8 3.7
5/2/26 - 2100 58.2 77 50.8 54.8 NNW | 347 0.6 2.2 0.0 13.0 0.00 - - 0.00 47.0 76.6 14.8 3.7
5/2/26 - 2000 64.3 60 50.1 56.5 ESE | 120 2.2 7.5 0.0 13.2 0.00 - - 0.00 47.0 76.6 14.8 3.7
5/2/26 - 1900 68.5 49 48.2 56.8 SE | 128 2.9 10.0 0.0 13.5 0.00 - - 0.00 47.0 76.6 14.8 3.7
5/2/26 - 1800 71.7 42 47.2 57.2 SSE | 152 4.3 12.5 0.0 13.5 0.00 - - 0.00 47.0 76.6 14.8 3.7
5/2/26 - 1700 73.9 36 45.2 56.8 SSE | 155 4.9 11.5 0.0 13.4 0.00 - - 0.00 47.0 76.6 14.8 3.7
5/2/26 - 1600 75.0 38 47.6 58.3 SSE | 159 5.7 12.4 0.0 13.4 0.00 - - 0.00 47.0 76.6 14.8 3.7
5/2/26 - 1500 75.4 36 46.8 58.0 SSE | 153 6.0 14.8 0.0 13.4 0.00 - - 0.00 47.0 76.6 14.8 3.7
5/2/26 - 1400 74.3 42 49.6 59.2 SSE | 153 5.0 11.4 0.0 13.4 0.00 - - 0.00 47.0 75.7 11.4 3.7
5/2/26 - 1300 71.8 50 52.4 60.1 SSE | 158 4.7 10.8 0.0 13.5 0.00 - - 0.00 47.0 73.1 10.8 3.7
5/2/26 - 1200 70.0 57 54.1 60.7 SSE | 156 3.3 9.2 0.0 13.5 0.00 - - 0.00 47.0 71.4 9.2 3.7
5/2/26 - 1100 66.7 64 54.3 59.9 SE | 130 2.3 6.0 0.0 13.6 0.00 - - 0.00 47.0 68.4 6.5 3.7
5/2/26 - 1000 62.4 74 53.9 58.3 SSE | 152 1.5 4.8 0.0 13.1 0.00 - - 0.00 47.0 64.6 6.5 3.7
5/2/26 - 0900 57.9 82 52.3 55.6 SE | 129 1.2 3.4 0.0 13.0 0.00 - - 0.00 47.0 60.2 6.5 3.7
5/2/26 - 0800 51.2 95 49.8 51.2 E | 99 1.0 4.6 6.3 12.8 0.00 - - 0.00 47.0 54.4 6.5 3.7
5/2/26 - 0700 49.3 98 48.7 49.7 N | 355 1.6 6.5 60.0 12.6 0.00 - - 0.00 47.0 51.0 6.5 3.6
5/2/26 - 0600 48.0 99 47.6 48.5 NW | 322 0.3 2.2 60.0 12.6 0.00 - - 0.00 47.0 51.0 3.3 2.6
5/2/26 - 0500 47.6 98 47.1 48.0 NW | 321 0.2 3.3 60.0 12.6 0.00 - - 0.00 47.0 51.0 3.3 1.6
5/2/26 - 0400 48.3 97 47.6 48.6 NW | 315 0.3 1.4 33.9 12.6 0.00 - - 0.00 47.4 51.0 1.9 0.6
5/2/26 - 0300 49.3 97 48.4 49.6 NW | 315 0.3 1.9 0.0 12.6 0.00 - - 0.00 48.2 51.0 1.9 0.0
5/2/26 - 0200 50.0 96 48.9 50.2 NW | 320 0.5 1.8 0.0 12.7 0.00 - - 0.00 49.3 51.0 1.8 0.0
5/2/26 - 0100 51.3 94 49.5 51.1 NW | 317 0.3 1.6 0.0 12.7 0.00 - - 0.00 43.8 81.3 10.6 4.9
5/2/26 - 0000 54.0 90 51.2 53.3 NW | 323 0.2 1.9 0.0 12.7 0.00 - - 0.00 43.8 81.3 10.6 4.9
5/1/26 - 2300 56.0 85 51.6 54.4 NW | 318 0.2 1.9 0.0 12.8 0.00 - - 0.00 43.8 81.3 10.6 4.9
5/1/26 - 2200 62.5 68 51.7 56.9 WNW | 302 1.0 5.9 0.0 12.8 0.00 - - 0.00 43.8 81.3 10.6 4.9
5/1/26 - 2100 67.2 62 53.4 59.5 WNW | 293 2.7 9.5 0.0 13.0 0.00 - - 0.00 43.8 81.3 10.6 4.9
5/1/26 - 2000 72.2 56 55.7 62.2 WNW | 291 1.9 8.4 0.0 13.1 0.00 - - 0.00 43.8 81.3 10.6 4.9
5/1/26 - 1900 77.4 45 54.3 62.6 W | 272 2.7 8.9 0.0 13.3 0.00 - - 0.00 43.8 81.3 10.6 4.9
5/1/26 - 1800 80.6 39 53.3 62.6 S | 178 2.5 9.3 0.0 13.3 0.00 - - 0.00 43.8 81.3 10.6 4.9
5/1/26 - 1700 80.1 39 52.9 62.2 SE | 138 4.1 9.5 0.0 13.3 0.00 - - 0.00 43.8 80.9 10.6 4.9
5/1/26 - 1600 80.3 38 52.1 61.9 SE | 141 4.4 10.6 0.0 13.3 0.00 - - 0.00 43.8 80.9 10.6 4.9
5/1/26 - 1500 80.1 38 51.9 61.7 SE | 145 4.0 8.3 0.0 13.3 0.00 - - 0.00 43.8 80.5 8.3 4.9
5/1/26 - 1400 79.2 42 54.0 62.7 SE | 140 3.3 8.3 0.0 13.3 0.00 - - 0.00 43.8 80.1 8.3 4.9
5/1/26 - 1300 77.4 42 52.7 61.6 SSE | 150 2.9 6.4 0.0 13.4 0.00 - - 0.00 43.8 78.8 6.4 4.9
5/1/26 - 1200 74.5 49 54.2 61.9 SE | 126 1.9 5.7 0.0 13.4 0.00 - - 0.00 43.8 76.1 5.7 4.9
5/1/26 - 1100 70.9 55 54.0 60.8 SE | 140 2.1 5.2 0.0 13.5 0.00 - - 0.00 43.8 72.7 5.2 4.9
5/1/26 - 1000 65.6 63 52.5 58.4 E | 101 1.4 3.8 0.0 12.9 0.00 - - 0.00 43.8 68.4 3.8 4.9
5/1/26 - 0900 58.6 80 52.3 55.8 ESE | 118 0.8 3.0 0.7 12.7 0.00 - - 0.00 43.8 62.9 3.0 4.9
5/1/26 - 0800 48.4 100 48.3 49.1 NNE | 29 0.2 1.6 60.0 12.6 0.00 - - 0.00 43.8 53.4 2.5 4.9
5/1/26 - 0700 44.5 99 44.2 44.8 N | 355 0.4 1.8 60.0 12.6 0.00 - - 0.00 43.8 50.0 2.5 3.9
5/1/26 - 0600 44.8 98 44.5 45.1 N | 352 0.5 2.0 60.0 12.6 0.00 - - 0.00 43.9 50.0 2.5 2.9
5/1/26 - 0500 45.3 98 44.8 45.6 NW | 314 0.2 1.6 60.0 12.6 0.00 - - 0.00 44.9 50.0 2.5 1.9
5/1/26 - 0400 46.0 97 45.3 46.2 NNW | 337 0.3 2.4 53.3 12.6 0.00 - - 0.00 45.4 50.0 2.5 0.9
Max 82.5 100 60.2 65.9 - 6.0 17.9 60.0 13.9 0.03 0.20 0.08 0.08 54.6 83.5 17.9 6.8
Avg 59.4 77 51.0 54.9 - 2.4 7.6 8.1 13.0 0.00 0.05 0.06 - - - - -
Min 44.5 36 44.2 44.8 - 0.0 0.7 0.0 12.6 0.00 0.01 0.01 0.00 43.8 48.0 1.5 0.0
Total - - - - - - - - - 0.08 - - - - - - -